Главная страница
METAR-TAF:

METAR-TAF

Аэропорты :

Уоллис, Франция

широта: 13-14S, долгота: 176-10W, высота над уровнем моря: 23 м

METAR: отсутствует

Время: 11:23 (23:23 UTC)

Прогноз

Эта сводка был подготовлена 6 часа и 23 минут назад, в 17:00 UTC
Прогноз действительный с 21-го 18 UTC до 22-го 18 UTC
Ветер 8 Узел от юго-восточный
Видимость 10 км и более
Отдельные облака на высоте 2000 фута
Вероятность 40% :
временами
С 21-го 18 UTC до 22-го 04 UTC
небольшая облачность на высоте 2000 фута, мощно-кучевые.
ливневые дожди
Вероятность 30% :
временами
С 21-го 18 UTC до 22-го 03 UTC
Видимость: 4000 м
Рассеянная облачность на высоте 1400 фута
небольшая облачность на высоте 2000 фута, Кучево-дождевые.
ливневые дожди

TAF: NLWW 211700Z 2118/2218 14008KT 9999 SCT020 PROB40 TEMPO 2118/2204 SHRA FEW020TCU PROB30 TEMPO 2118/2203 4000 SHRA BKN014 FEW020CB

Метеонаблюдения и прогнозы для более 4000 аэропортов (сводки METAR и TAF).

Имеющиеся станции представлены на карте желтыми и красными точками.

Чтобы увидеть название станции, наведите на нее мышь.

Затем щелкните, чтобы увидеть метеонаблюдения и метеопрогнозы.

Управление картой: чтобы увеличить масштаб, щелкните зеленые кнопки с черным крестиком; чтобы уменьшить масштаб, щелкните зеленую кнопку с тире; для просмотра соседних карт щелкайте зеленые стрелки.


METAR-TAF: